Time;durP1;ratioP1;P1;durP2;ratioP2;P2;SDS_P1;SDS_P2;PMS_P1;PMS_P2;Temp;Humidity;BMP_temperature;BMP_pressure;BME280_temperature;BME280_humidity;BME280_pressure;Samples;Min_cycle;Max_cycle;Signal;HPM_P1;HPM_P2
2022/11/24 00:00:35;;;;;;;55.53;32.37;;;;;;;;;;4970914;28;20279;-76
2022/11/24 00:03:03;;;;;;;55.17;32.67;;;;;;;;;;4991022;28;20919;-76
2022/11/24 00:05:29;;;;;;;58.70;33.97;;;;;;;;;;4990867;28;20668;-77
2022/11/24 00:07:55;;;;;;;53.83;31.97;;;;;;;;;;4974149;28;20191;-77
2022/11/24 00:10:21;;;;;;;51.23;30.77;;;;;;;;;;4961796;28;20184;-76
2022/11/24 00:12:47;;;;;;;52.07;29.73;;;;;;;;;;4979863;28;20199;-77
2022/11/24 00:15:13;;;;;;;50.07;30.73;;;;;;;;;;4978427;28;20210;-77
2022/11/24 00:17:39;;;;;;;53.33;30.97;;;;;;;;;;4991066;28;20197;-77
2022/11/24 00:20:06;;;;;;;55.93;31.60;;;;;;;;;;4993050;28;20180;-76
2022/11/24 00:22:32;;;;;;;51.53;30.03;;;;;;;;;;4971390;28;20227;-76
2022/11/24 00:24:58;;;;;;;50.83;31.57;;;;;;;;;;5007641;28;20201;-76
2022/11/24 00:27:24;;;;;;;57.30;30.43;;;;;;;;;;4991686;28;20198;-75
2022/11/24 00:29:50;;;;;;;48.50;29.20;;;;;;;;;;5014684;28;20191;-76
2022/11/24 00:32:16;;;;;;;51.23;30.23;;;;;;;;;;4994095;28;20210;-76
2022/11/24 00:34:42;;;;;;;56.30;31.77;;;;;;;;;;5004440;28;20183;-76
2022/11/24 00:37:08;;;;;;;53.23;31.77;;;;;;;;;;5001829;28;20188;-76
2022/11/24 00:39:34;;;;;;;53.67;32.60;;;;;;;;;;5011190;28;20225;-75
2022/11/24 00:42:00;;;;;;;57.00;33.13;;;;;;;;;;5010670;28;20186;-76
2022/11/24 00:44:26;;;;;;;51.13;30.27;;;;;;;;;;4984798;28;20227;-76
2022/11/24 00:46:52;;;;;;;50.80;30.17;;;;;;;;;;5006286;28;20191;-76
2022/11/24 00:49:18;;;;;;;47.07;28.20;;;;;;;;;;5015529;28;20183;-75
2022/11/24 00:51:45;;;;;;;52.33;29.77;;;;;;;;;;4997841;28;20334;-76
2022/11/24 00:54:11;;;;;;;47.83;26.87;;;;;;;;;;4997802;28;20190;-76
2022/11/24 00:56:37;;;;;;;48.27;27.53;;;;;;;;;;5010840;28;20208;-76
2022/11/24 00:59:03;;;;;;;48.10;29.10;;;;;;;;;;5019345;28;20257;-75
2022/11/24 01:01:32;;;;;;;41.27;27.03;;;;;;;;;;4998086;28;20273;-75
2022/11/24 01:04:02;;;;;;;49.40;28.83;;;;;;;;;;4992880;28;20237;-76
2022/11/24 01:06:29;;;;;;;45.80;28.27;;;;;;;;;;5012059;28;20215;-76
2022/11/24 01:08:56;;;;;;;58.70;31.20;;;;;;;;;;4995185;28;20715;-76
2022/11/24 01:11:24;;;;;;;54.60;31.30;;;;;;;;;;4996463;28;20521;-76
2022/11/24 01:13:56;;;;;;;61.93;34.37;;;;;;;;;;5012784;28;20176;-76
2022/11/24 01:16:24;;;;;;;65.03;34.43;;;;;;;;;;5005135;28;20179;-76
2022/11/24 01:18:51;;;;;;;60.60;34.37;;;;;;;;;;5001718;28;20218;-75
2022/11/24 01:21:17;;;;;;;58.43;33.23;;;;;;;;;;5001090;28;20183;-76
2022/11/24 01:23:43;;;;;;;59.20;32.83;;;;;;;;;;4995527;28;20245;-75
2022/11/24 01:26:10;;;;;;;57.57;33.77;;;;;;;;;;4997589;28;20546;-76
2022/11/24 01:28:36;;;;;;;60.93;34.43;;;;;;;;;;5002058;28;20675;-76
2022/11/24 01:31:04;;;;;;;59.13;34.83;;;;;;;;;;5002092;28;20190;-76
2022/11/24 01:33:30;;;;;;;62.90;35.13;;;;;;;;;;5000460;28;20793;-75
2022/11/24 01:35:57;;;;;;;57.60;35.63;;;;;;;;;;4999103;28;20270;-76
2022/11/24 01:38:23;;;;;;;64.67;35.90;;;;;;;;;;4980122;28;20179;-76
2022/11/24 01:40:49;;;;;;;66.07;37.00;;;;;;;;;;5001024;28;20221;-75
2022/11/24 01:43:19;;;;;;;63.63;36.97;;;;;;;;;;5003169;28;20343;-76
2022/11/24 01:45:46;;;;;;;61.13;35.57;;;;;;;;;;5001786;28;20191;-75
2022/11/24 01:48:24;;;;;;;64.67;36.13;;;;;;;;;;4999877;28;20186;-76
2022/11/24 01:50:54;;;;;;;61.80;34.83;;;;;;;;;;4995693;28;20190;-76
2022/11/24 01:53:20;;;;;;;63.67;35.43;;;;;;;;;;4990265;28;20182;-76
2022/11/24 01:55:47;;;;;;;61.57;36.00;;;;;;;;;;5000738;28;20195;-76
2022/11/24 01:58:19;;;;;;;58.77;35.73;;;;;;;;;;5007966;28;20183;-75
2022/11/24 02:00:45;;;;;;;61.53;36.43;;;;;;;;;;5012277;28;20198;-76
2022/11/24 02:03:13;;;;;;;69.50;39.03;;;;;;;;;;4993878;28;20285;-76
2022/11/24 02:05:49;;;;;;;69.97;37.63;;;;;;;;;;4997132;28;20208;-75
2022/11/24 02:08:45;;;;;;;66.50;36.20;;;;;;;;;;4995467;28;20547;-76
2022/11/24 02:11:11;;;;;;;64.63;35.67;;;;;;;;;;4974763;28;20199;-75
2022/11/24 02:13:38;;;;;;;64.93;37.37;;;;;;;;;;5001170;28;20246;-77
2022/11/24 02:16:06;;;;;;;62.83;36.07;;;;;;;;;;5004057;28;20718;-76
2022/11/24 02:18:32;;;;;;;65.43;37.77;;;;;;;;;;5011770;28;20191;-76
2022/11/24 02:20:59;;;;;;;68.60;38.03;;;;;;;;;;5012199;28;20190;-76
2022/11/24 02:23:43;;;;;;;65.60;37.20;;;;;;;;;;4997618;28;20307;-77
2022/11/24 02:26:09;;;;;;;72.13;37.67;;;;;;;;;;4993230;28;20179;-76
2022/11/24 02:28:35;;;;;;;74.13;37.83;;;;;;;;;;4982742;28;20186;-76
2022/11/24 02:31:01;;;;;;;70.63;38.60;;;;;;;;;;4999916;28;20191;-76
2022/11/24 02:33:28;;;;;;;76.17;40.27;;;;;;;;;;4999845;28;20194;-76
2022/11/24 02:35:54;;;;;;;74.57;39.70;;;;;;;;;;4994242;28;20591;-76
2022/11/24 02:38:28;;;;;;;74.33;38.30;;;;;;;;;;4995050;28;20285;-76
2022/11/24 02:40:54;;;;;;;74.83;39.33;;;;;;;;;;4994648;28;20187;-75
2022/11/24 02:43:22;;;;;;;70.73;38.17;;;;;;;;;;4992186;28;20226;-76
2022/11/24 02:45:48;;;;;;;69.20;36.90;;;;;;;;;;4999283;28;20193;-76
2022/11/24 02:48:14;;;;;;;71.03;38.00;;;;;;;;;;4996768;28;20190;-75
2022/11/24 02:50:40;;;;;;;70.00;34.87;;;;;;;;;;4978069;28;20664;-75
2022/11/24 02:53:07;;;;;;;68.37;37.27;;;;;;;;;;4989540;28;20183;-76
2022/11/24 02:55:33;;;;;;;65.43;36.47;;;;;;;;;;5000013;28;20184;-75
2022/11/24 02:57:59;;;;;;;66.10;34.87;;;;;;;;;;4999376;28;20299;-77
2022/11/24 03:00:25;;;;;;;70.27;37.93;;;;;;;;;;4997299;28;20202;-76
2022/11/24 03:02:51;;;;;;;62.13;34.63;;;;;;;;;;4993709;28;20194;-76
2022/11/24 03:05:17;;;;;;;57.73;34.30;;;;;;;;;;5010632;28;20585;-76
2022/11/24 03:07:43;;;;;;;58.23;34.93;;;;;;;;;;5005291;28;20273;-76
2022/11/24 03:10:09;;;;;;;57.07;33.37;;;;;;;;;;4986012;28;20198;-76
2022/11/24 03:12:36;;;;;;;58.03;32.23;;;;;;;;;;5000413;28;20199;-75
2022/11/24 03:15:02;;;;;;;54.33;31.27;;;;;;;;;;4993203;28;20280;-76
2022/11/24 03:17:28;;;;;;;56.53;32.27;;;;;;;;;;5006936;28;20544;-77
2022/11/24 03:19:54;;;;;;;57.90;31.90;;;;;;;;;;5011439;28;20183;-76
2022/11/24 03:22:20;;;;;;;53.83;29.97;;;;;;;;;;5011196;28;20223;-75
2022/11/24 03:24:46;;;;;;;52.87;30.43;;;;;;;;;;5011143;28;20589;-76
2022/11/24 03:27:12;;;;;;;52.33;30.83;;;;;;;;;;5009961;28;20686;-75
2022/11/24 03:29:39;;;;;;;51.87;29.67;;;;;;;;;;5010079;28;20202;-76
2022/11/24 03:32:05;;;;;;;46.93;27.40;;;;;;;;;;5011555;28;20190;-76
2022/11/24 03:34:31;;;;;;;44.37;26.30;;;;;;;;;;4987099;28;20213;-76
2022/11/24 03:36:57;;;;;;;42.77;26.43;;;;;;;;;;4990169;28;20202;-76
2022/11/24 03:39:23;;;;;;;42.23;25.73;;;;;;;;;;5010745;28;20273;-76
2022/11/24 03:41:52;;;;;;;40.93;24.23;;;;;;;;;;5011809;28;20186;-75
2022/11/24 03:44:18;;;;;;;37.50;22.77;;;;;;;;;;4994418;28;20301;-76
2022/11/24 03:46:44;;;;;;;30.63;20.57;;;;;;;;;;5011038;28;20187;-76
2022/11/24 03:49:11;;;;;;;36.30;21.47;;;;;;;;;;4990865;28;20624;-75
2022/11/24 03:51:37;;;;;;;32.37;20.90;;;;;;;;;;4990506;28;20187;-75
2022/11/24 03:54:03;;;;;;;29.40;19.50;;;;;;;;;;4993094;28;20218;-75
2022/11/24 03:56:29;;;;;;;34.07;21.20;;;;;;;;;;4994478;28;20265;-76
2022/11/24 03:58:55;;;;;;;31.13;20.33;;;;;;;;;;5010585;28;20186;-75
2022/11/24 04:01:21;;;;;;;33.27;20.73;;;;;;;;;;4992051;28;20175;-76
2022/11/24 04:03:47;;;;;;;29.93;19.83;;;;;;;;;;5007063;28;20224;-75
2022/11/24 04:06:13;;;;;;;30.80;20.33;;;;;;;;;;5010953;28;20266;-76
2022/11/24 04:08:39;;;;;;;33.33;21.83;;;;;;;;;;5011125;28;20212;-76
2022/11/24 04:11:06;;;;;;;36.20;22.87;;;;;;;;;;4990917;28;20205;-75
2022/11/24 04:13:32;;;;;;;36.93;23.00;;;;;;;;;;5010072;28;20324;-76
2022/11/24 04:15:58;;;;;;;36.70;23.03;;;;;;;;;;4990348;28;20656;-75
2022/11/24 04:18:24;;;;;;;33.87;21.47;;;;;;;;;;5014015;28;20179;-75
2022/11/24 04:20:50;;;;;;;34.80;21.03;;;;;;;;;;4998619;28;20533;-75
2022/11/24 04:23:17;;;;;;;33.83;21.93;;;;;;;;;;4995520;28;20233;-76
2022/11/24 04:25:43;;;;;;;33.87;20.30;;;;;;;;;;4985809;28;20218;-75
2022/11/24 04:28:09;;;;;;;30.70;20.20;;;;;;;;;;5001596;28;20644;-75
2022/11/24 04:30:37;;;;;;;33.80;20.90;;;;;;;;;;5002043;28;20257;-75
2022/11/24 04:33:03;;;;;;;35.77;22.97;;;;;;;;;;4995650;28;20738;-76
2022/11/24 04:35:29;;;;;;;39.00;23.53;;;;;;;;;;5014996;28;20175;-75
2022/11/24 04:37:55;;;;;;;36.63;22.57;;;;;;;;;;5002987;28;20238;-75
2022/11/24 04:40:21;;;;;;;34.83;21.23;;;;;;;;;;5003863;28;20601;-76
2022/11/24 04:42:54;;;;;;;33.40;20.53;;;;;;;;;;5009113;28;20521;-75
2022/11/24 04:45:20;;;;;;;33.43;21.23;;;;;;;;;;4998390;28;20198;-76
2022/11/24 04:47:46;;;;;;;36.43;23.00;;;;;;;;;;4980894;28;20171;-75
2022/11/24 04:50:12;;;;;;;35.77;21.90;;;;;;;;;;4999209;28;20190;-75
2022/11/24 04:52:38;;;;;;;31.37;19.83;;;;;;;;;;4993294;28;20182;-75
2022/11/24 04:55:05;;;;;;;33.40;21.07;;;;;;;;;;5010159;28;20195;-75
2022/11/24 04:57:31;;;;;;;33.10;21.10;;;;;;;;;;4997907;28;20222;-76
2022/11/24 04:59:57;;;;;;;37.47;21.40;;;;;;;;;;4994461;28;20184;-76
2022/11/24 05:02:23;;;;;;;33.73;21.30;;;;;;;;;;5003919;28;20187;-76
2022/11/24 05:04:49;;;;;;;34.63;21.33;;;;;;;;;;5013404;28;20684;-75
2022/11/24 05:07:16;;;;;;;33.50;21.03;;;;;;;;;;5013687;28;20187;-76
2022/11/24 05:12:30;;;;;;;43.43;24.40;;;;;;;;;;5000279;28;20549;-76
2022/11/24 05:15:05;;;;;;;39.73;23.53;;;;;;;;;;4994212;28;20237;-76
2022/11/24 05:17:33;;;;;;;51.03;30.20;;;;;;;;;;4995028;28;20189;-76
2022/11/24 05:19:59;;;;;;;50.60;29.57;;;;;;;;;;5002668;28;20183;-76
2022/11/24 05:22:25;;;;;;;47.00;27.70;;;;;;;;;;5000397;28;20226;-76
2022/11/24 05:24:51;;;;;;;42.40;25.43;;;;;;;;;;4997637;28;20218;-75
2022/11/24 05:27:17;;;;;;;47.53;26.43;;;;;;;;;;4994882;28;20619;-75
2022/11/24 05:29:43;;;;;;;35.00;22.87;;;;;;;;;;5008929;28;20178;-75
2022/11/24 05:32:10;;;;;;;37.43;22.80;;;;;;;;;;4981542;28;20274;-75
2022/11/24 05:34:36;;;;;;;37.57;22.33;;;;;;;;;;5007819;28;20202;-75
2022/11/24 05:37:02;;;;;;;38.03;22.30;;;;;;;;;;5012923;28;20194;-76
2022/11/24 05:39:31;;;;;;;34.03;21.47;;;;;;;;;;5012564;28;20208;-75
2022/11/24 05:41:57;;;;;;;38.23;21.40;;;;;;;;;;4980554;28;20212;-75
2022/11/24 05:44:23;;;;;;;41.10;23.10;;;;;;;;;;4984655;28;20249;-75
2022/11/24 05:46:49;;;;;;;44.67;27.50;;;;;;;;;;5001763;28;20197;-76
2022/11/24 05:49:15;;;;;;;48.43;28.23;;;;;;;;;;5003347;28;20190;-76
2022/11/24 05:51:41;;;;;;;40.47;25.03;;;;;;;;;;5009690;28;20269;-76
2022/11/24 05:54:07;;;;;;;41.50;23.53;;;;;;;;;;4982788;28;20226;-76
2022/11/24 05:56:33;;;;;;;41.70;23.80;;;;;;;;;;4995707;28;20259;-76
2022/11/24 05:58:59;;;;;;;42.83;23.00;;;;;;;;;;5012036;28;20704;-76
2022/11/24 06:01:25;;;;;;;41.87;22.17;;;;;;;;;;4993004;28;20193;-76
2022/11/24 06:03:51;;;;;;;38.23;22.00;;;;;;;;;;5007308;28;20210;-76
2022/11/24 06:06:17;;;;;;;39.27;21.33;;;;;;;;;;4993665;28;20632;-76
2022/11/24 06:08:43;;;;;;;37.17;21.07;;;;;;;;;;4996060;28;20197;-76
2022/11/24 06:11:18;;;;;;;40.73;22.47;;;;;;;;;;4983060;28;20199;-75
2022/11/24 06:13:45;;;;;;;39.03;22.03;;;;;;;;;;4985967;28;20210;-75
2022/11/24 06:16:11;;;;;;;40.33;23.93;;;;;;;;;;5012250;28;20209;-75
2022/11/24 06:18:38;;;;;;;38.17;22.57;;;;;;;;;;5010590;28;20643;-76
2022/11/24 06:21:04;;;;;;;38.17;23.77;;;;;;;;;;4994299;28;20179;-77
2022/11/24 06:23:31;;;;;;;40.07;24.00;;;;;;;;;;4992085;28;20281;-76
2022/11/24 06:26:00;;;;;;;39.63;24.13;;;;;;;;;;5004132;28;20199;-75
2022/11/24 06:28:27;;;;;;;44.27;24.03;;;;;;;;;;5009128;28;20768;-75
2022/11/24 06:30:53;;;;;;;42.77;23.27;;;;;;;;;;4990856;28;20190;-76
2022/11/24 06:33:19;;;;;;;42.50;23.40;;;;;;;;;;4994872;28;20278;-75
2022/11/24 06:35:45;;;;;;;39.37;23.00;;;;;;;;;;4994458;28;20183;-75
2022/11/24 06:38:11;;;;;;;46.23;24.33;;;;;;;;;;4990806;28;20220;-75
2022/11/24 06:40:37;;;;;;;43.20;24.70;;;;;;;;;;4992342;28;20186;-75
2022/11/24 06:43:03;;;;;;;37.13;23.40;;;;;;;;;;4992081;28;20187;-76
2022/11/24 06:45:29;;;;;;;43.27;25.07;;;;;;;;;;4992226;28;20187;-75
2022/11/24 06:47:56;;;;;;;39.60;23.97;;;;;;;;;;4979167;28;20194;-76
2022/11/24 06:50:22;;;;;;;41.63;24.17;;;;;;;;;;5004234;28;20202;-76
2022/11/24 06:52:48;;;;;;;38.70;24.10;;;;;;;;;;4983399;28;20191;-76
2022/11/24 06:55:14;;;;;;;40.27;23.63;;;;;;;;;;4989754;28;20189;-76
2022/11/24 06:57:40;;;;;;;38.43;23.67;;;;;;;;;;4992278;28;20194;-74
2022/11/24 07:00:07;;;;;;;36.63;22.40;;;;;;;;;;5005147;28;20189;-75
2022/11/24 07:02:33;;;;;;;41.73;23.90;;;;;;;;;;4988617;28;20663;-76
2022/11/24 07:04:59;;;;;;;39.97;22.03;;;;;;;;;;4988351;28;20214;-76
2022/11/24 07:07:25;;;;;;;37.90;22.20;;;;;;;;;;4991149;28;20540;-76
2022/11/24 07:09:51;;;;;;;32.90;20.83;;;;;;;;;;4982875;28;20186;-75
2022/11/24 07:12:17;;;;;;;37.27;23.23;;;;;;;;;;4989905;28;20187;-76
2022/11/24 07:14:43;;;;;;;37.63;22.87;;;;;;;;;;4990035;28;20597;-75
2022/11/24 07:17:09;;;;;;;35.90;22.17;;;;;;;;;;5007344;28;20298;-74
2022/11/24 07:19:35;;;;;;;37.33;22.50;;;;;;;;;;4984177;28;20210;-74
2022/11/24 07:22:02;;;;;;;37.83;22.57;;;;;;;;;;4996876;28;20227;-75
2022/11/24 07:24:28;;;;;;;35.33;21.07;;;;;;;;;;5005940;28;20265;-75
2022/11/24 07:26:54;;;;;;;36.53;22.47;;;;;;;;;;5010185;28;20206;-75
2022/11/24 07:29:20;;;;;;;31.90;20.37;;;;;;;;;;4989138;28;20217;-75
2022/11/24 07:31:46;;;;;;;36.83;21.77;;;;;;;;;;4989959;28;20205;-75
2022/11/24 07:34:13;;;;;;;36.10;21.27;;;;;;;;;;4988033;28;20215;-76
2022/11/24 07:36:39;;;;;;;35.50;22.43;;;;;;;;;;4983858;28;20546;-76
2022/11/24 07:39:06;;;;;;;38.13;22.47;;;;;;;;;;5005866;28;20270;-75
2022/11/24 07:41:32;;;;;;;37.77;23.40;;;;;;;;;;5009074;28;20189;-76
2022/11/24 07:43:58;;;;;;;34.60;21.57;;;;;;;;;;4991986;28;20224;-75
2022/11/24 07:46:24;;;;;;;36.50;22.20;;;;;;;;;;4981475;28;20187;-75
2022/11/24 07:48:50;;;;;;;37.47;22.73;;;;;;;;;;5007923;28;20674;-75
2022/11/24 07:51:16;;;;;;;39.10;23.33;;;;;;;;;;5001663;28;20624;-76
2022/11/24 07:53:42;;;;;;;40.50;23.83;;;;;;;;;;4999120;28;20181;-76
2022/11/24 07:56:08;;;;;;;39.30;24.20;;;;;;;;;;5015663;28;20194;-76
2022/11/24 07:58:35;;;;;;;39.70;24.20;;;;;;;;;;4995169;28;20190;-76
2022/11/24 08:01:10;;;;;;;39.47;24.27;;;;;;;;;;4993448;28;20946;-76
2022/11/24 08:03:36;;;;;;;35.77;23.17;;;;;;;;;;5004477;28;20249;-76
2022/11/24 08:06:02;;;;;;;36.27;23.30;;;;;;;;;;4983697;28;20183;-76
2022/11/24 08:08:32;;;;;;;37.37;23.90;;;;;;;;;;4998135;28;20225;-77
2022/11/24 08:10:58;;;;;;;37.87;24.43;;;;;;;;;;4998671;28;20186;-76
2022/11/24 08:13:24;;;;;;;34.20;23.43;;;;;;;;;;4999022;28;20197;-76
2022/11/24 08:15:50;;;;;;;36.70;23.63;;;;;;;;;;5012865;28;20187;-77
2022/11/24 08:18:16;;;;;;;31.70;21.97;;;;;;;;;;5013336;28;20635;-76
2022/11/24 08:20:42;;;;;;;34.47;22.73;;;;;;;;;;4997638;28;20174;-76
2022/11/24 08:23:08;;;;;;;35.73;23.00;;;;;;;;;;4988848;28;20719;-75
2022/11/24 08:25:34;;;;;;;31.97;22.30;;;;;;;;;;5008131;28;20190;-76
2022/11/24 08:28:01;;;;;;;36.93;22.53;;;;;;;;;;4996633;28;20233;-76
2022/11/24 08:30:27;;;;;;;33.33;21.90;;;;;;;;;;4999456;28;20174;-75
2022/11/24 08:32:53;;;;;;;29.97;21.13;;;;;;;;;;5001706;28;20213;-75
2022/11/24 08:35:19;;;;;;;35.70;23.43;;;;;;;;;;4998066;28;20245;-76
2022/11/24 08:37:45;;;;;;;33.27;21.27;;;;;;;;;;4993159;28;20206;-76
2022/11/24 08:40:12;;;;;;;35.60;22.43;;;;;;;;;;5005663;28;20178;-76
2022/11/24 08:42:38;;;;;;;34.17;21.57;;;;;;;;;;5002192;28;20187;-76
2022/11/24 08:45:04;;;;;;;32.07;20.80;;;;;;;;;;5010655;28;20203;-76
2022/11/24 08:47:30;;;;;;;34.40;21.43;;;;;;;;;;4999283;28;20657;-77
2022/11/24 08:49:56;;;;;;;31.40;21.63;;;;;;;;;;4976583;28;20202;-76
2022/11/24 08:52:22;;;;;;;30.23;20.70;;;;;;;;;;4985976;28;20207;-75
2022/11/24 08:54:49;;;;;;;32.30;21.10;;;;;;;;;;5006340;28;20708;-77
2022/11/24 08:57:15;;;;;;;29.63;20.23;;;;;;;;;;5015137;28;20209;-75
2022/11/24 08:59:41;;;;;;;33.20;21.53;;;;;;;;;;4994866;28;20186;-75
2022/11/24 09:02:11;;;;;;;30.20;21.30;;;;;;;;;;4995013;28;20183;-75
2022/11/24 09:04:37;;;;;;;32.97;21.10;;;;;;;;;;4989990;28;20618;-75
2022/11/24 09:07:03;;;;;;;30.07;20.73;;;;;;;;;;4993431;28;20187;-75
2022/11/24 09:09:29;;;;;;;30.77;19.70;;;;;;;;;;4985572;28;20190;-75
2022/11/24 09:11:55;;;;;;;29.13;20.73;;;;;;;;;;4995428;28;20175;-75
2022/11/24 09:14:21;;;;;;;30.37;20.27;;;;;;;;;;4991455;28;21077;-75
2022/11/24 09:16:47;;;;;;;28.77;20.73;;;;;;;;;;4990808;28;20272;-74
2022/11/24 09:19:13;;;;;;;33.17;20.73;;;;;;;;;;4990434;28;20237;-75
2022/11/24 09:21:39;;;;;;;38.27;21.23;;;;;;;;;;4992902;28;20195;-75
2022/11/24 09:24:06;;;;;;;32.27;20.70;;;;;;;;;;4991146;28;20199;-74
2022/11/24 09:26:33;;;;;;;32.40;21.07;;;;;;;;;;4986173;28;20202;-75
2022/11/24 09:29:00;;;;;;;30.47;21.60;;;;;;;;;;4985516;28;20671;-74
2022/11/24 09:31:27;;;;;;;33.53;20.60;;;;;;;;;;4989227;28;20210;-74
2022/11/24 09:33:53;;;;;;;35.70;21.67;;;;;;;;;;4991003;28;20716;-75
2022/11/24 09:36:20;;;;;;;31.77;21.47;;;;;;;;;;5010712;28;20179;-76
2022/11/24 09:38:46;;;;;;;32.43;21.57;;;;;;;;;;5007796;28;20245;-74
2022/11/24 09:41:30;;;;;;;33.30;21.63;;;;;;;;;;4990877;28;20640;-75
2022/11/24 09:44:15;;;;;;;33.43;21.60;;;;;;;;;;5007338;28;20741;-75
2022/11/24 09:46:47;;;;;;;30.23;20.47;;;;;;;;;;4986761;28;20183;-75
2022/11/24 09:49:16;;;;;;;34.37;22.00;;;;;;;;;;4987443;28;20182;-74
2022/11/24 09:51:44;;;;;;;34.97;22.10;;;;;;;;;;4997781;28;20179;-75
2022/11/24 09:54:15;;;;;;;34.47;21.50;;;;;;;;;;5007934;28;20688;-75
2022/11/24 09:56:42;;;;;;;29.57;21.10;;;;;;;;;;5008109;28;20179;-74
2022/11/24 09:59:16;;;;;;;37.23;22.83;;;;;;;;;;5009915;28;20187;-76
2022/11/24 10:01:44;;;;;;;31.03;21.37;;;;;;;;;;4991094;28;20186;-75
2022/11/24 10:04:19;;;;;;;36.17;23.37;;;;;;;;;;5010749;28;20225;-74
2022/11/24 10:06:45;;;;;;;33.73;21.73;;;;;;;;;;5003241;28;20187;-74
2022/11/24 10:09:23;;;;;;;31.87;21.60;;;;;;;;;;5008587;28;20181;-75
2022/11/24 10:11:57;;;;;;;32.73;21.50;;;;;;;;;;4988489;28;20191;-75
2022/11/24 10:14:23;;;;;;;28.63;20.33;;;;;;;;;;4987132;28;20210;-75
2022/11/24 10:16:59;;;;;;;33.33;21.80;;;;;;;;;;4994412;28;20194;-75
2022/11/24 10:19:28;;;;;;;29.87;21.03;;;;;;;;;;4984434;28;20628;-74
2022/11/24 10:22:21;;;;;;;29.03;19.40;;;;;;;;;;4996245;28;20589;-74
2022/11/24 10:24:49;;;;;;;28.87;20.47;;;;;;;;;;4915530;29;20573;-76
2022/11/24 10:27:17;;;;;;;193.10;79.27;;;;;;;;;;4899174;29;20194;-77
2022/11/24 10:29:44;;;;;;;187.67;94.73;;;;;;;;;;4909974;29;21112;-74
2022/11/24 10:32:28;;;;;;;66.90;38.83;;;;;;;;;;4911957;29;20569;-75
2022/11/24 10:34:58;;;;;;;78.87;48.17;;;;;;;;;;4914893;29;20221;-74
2022/11/24 10:37:45;;;;;;;51.07;32.97;;;;;;;;;;4915774;29;20217;-73
2022/11/24 10:40:23;;;;;;;41.93;26.33;;;;;;;;;;4915807;29;20656;-74
2022/11/24 10:42:51;;;;;;;36.70;24.70;;;;;;;;;;4909217;29;20642;-75
2022/11/24 10:45:18;;;;;;;36.27;23.37;;;;;;;;;;4913088;29;20293;-75
2022/11/24 10:47:45;;;;;;;40.63;28.20;;;;;;;;;;4916406;29;20209;-73
2022/11/24 10:50:19;;;;;;;41.23;26.80;;;;;;;;;;4907264;29;20183;-74
2022/11/24 10:52:56;;;;;;;41.73;28.47;;;;;;;;;;4908022;29;20225;-74
2022/11/24 10:55:22;;;;;;;35.67;24.23;;;;;;;;;;4915570;29;20202;-77
2022/11/24 10:57:48;;;;;;;36.77;24.97;;;;;;;;;;4904411;29;20187;-74
2022/11/24 11:00:20;;;;;;;35.27;23.33;;;;;;;;;;4896419;29;20183;-75
2022/11/24 11:02:51;;;;;;;37.03;22.90;;;;;;;;;;5008383;28;20678;-75
2022/11/24 11:05:32;;;;;;;33.90;23.23;;;;;;;;;;5006093;28;20207;-75
2022/11/24 11:08:28;;;;;;;40.43;27.43;;;;;;;;;;4988334;28;20273;-74
2022/11/24 11:11:13;;;;;;;53.07;34.87;;;;;;;;;;4971084;28;20198;-74
2022/11/24 11:13:50;;;;;;;57.17;37.97;;;;;;;;;;4984955;28;20282;-74
2022/11/24 11:16:25;;;;;;;46.90;31.53;;;;;;;;;;4988216;28;20186;-75
2022/11/24 11:18:52;;;;;;;43.70;29.13;;;;;;;;;;4993226;28;20187;-75
2022/11/24 11:21:45;;;;;;;42.77;28.10;;;;;;;;;;5004394;28;20224;-74
2022/11/24 11:24:15;;;;;;;39.60;27.80;;;;;;;;;;5007899;28;20290;-74
2022/11/24 11:26:42;;;;;;;38.47;27.13;;;;;;;;;;4996317;28;20183;-74
2022/11/24 11:29:09;;;;;;;43.20;28.33;;;;;;;;;;5005829;28;20183;-75
2022/11/24 11:31:35;;;;;;;34.50;24.10;;;;;;;;;;4977867;28;20189;-74
2022/11/24 11:34:11;;;;;;;39.23;27.47;;;;;;;;;;5002166;28;20234;-75
2022/11/24 11:36:40;;;;;;;38.30;28.77;;;;;;;;;;5001433;28;20321;-75
2022/11/24 11:39:06;;;;;;;39.73;26.93;;;;;;;;;;4990607;28;20214;-73
2022/11/24 11:41:33;;;;;;;36.40;25.03;;;;;;;;;;5007103;28;20191;-74
2022/11/24 11:44:20;;;;;;;38.13;26.70;;;;;;;;;;5006856;28;20691;-74
2022/11/24 11:46:46;;;;;;;45.17;31.63;;;;;;;;;;4978685;28;20675;-74
2022/11/24 11:49:12;;;;;;;46.90;31.97;;;;;;;;;;5005444;28;20195;-75
2022/11/24 11:51:57;;;;;;;41.80;29.37;;;;;;;;;;4991257;28;20547;-74
2022/11/24 11:54:44;;;;;;;45.30;29.60;;;;;;;;;;4993191;28;20266;-75
2022/11/24 11:57:13;;;;;;;46.20;30.93;;;;;;;;;;4979672;28;20191;-74
2022/11/24 11:59:42;;;;;;;45.60;30.53;;;;;;;;;;4986055;28;20191;-75
2022/11/24 12:02:08;;;;;;;45.27;29.50;;;;;;;;;;4996542;28;20193;-75
2022/11/24 12:04:37;;;;;;;46.73;31.57;;;;;;;;;;5000501;28;20676;-76
2022/11/24 12:07:22;;;;;;;39.27;28.87;;;;;;;;;;4998602;28;20222;-76
2022/11/24 12:09:56;;;;;;;41.77;28.47;;;;;;;;;;4999170;28;20207;-76
2022/11/24 12:12:49;;;;;;;237.47;117.53;;;;;;;;;;5014084;28;20607;-77
2022/11/24 12:15:28;;;;;;;127.93;60.97;;;;;;;;;;5012577;28;20178;-76
2022/11/24 12:18:05;;;;;;;84.00;48.93;;;;;;;;;;5031541;28;20171;-76
2022/11/24 12:20:31;;;;;;;59.30;36.20;;;;;;;;;;5011312;28;20206;-77
2022/11/24 12:22:57;;;;;;;57.80;34.67;;;;;;;;;;5032381;28;20278;-76
2022/11/24 12:25:26;;;;;;;87.70;52.30;;;;;;;;;;5034285;28;20241;-76
2022/11/24 12:27:55;;;;;;;40.03;28.80;;;;;;;;;;5025544;28;20259;-74
2022/11/24 12:30:22;;;;;;;46.10;28.63;;;;;;;;;;5015385;28;20168;-75
2022/11/24 12:32:57;;;;;;;56.17;35.80;;;;;;;;;;5029190;28;20201;-77
2022/11/24 12:35:23;;;;;;;48.30;31.33;;;;;;;;;;5014908;28;20177;-77
2022/11/24 12:37:57;;;;;;;59.83;40.10;;;;;;;;;;5013570;28;20190;-78
2022/11/24 12:40:47;;;;;;;56.93;36.50;;;;;;;;;;5031709;28;20271;-75
2022/11/24 12:43:22;;;;;;;54.87;35.03;;;;;;;;;;4961063;28;20217;-76
2022/11/24 12:45:55;;;;;;;51.60;33.40;;;;;;;;;;4939528;28;20299;-76
2022/11/24 12:48:33;;;;;;;48.47;30.90;;;;;;;;;;4973920;28;20188;-77
2022/11/24 12:50:59;;;;;;;43.73;29.40;;;;;;;;;;4968633;28;20287;-77
2022/11/24 12:53:28;;;;;;;46.10;30.17;;;;;;;;;;4941420;28;20225;-76
2022/11/24 12:55:56;;;;;;;47.33;29.70;;;;;;;;;;4945138;28;20211;-77
2022/11/24 12:58:34;;;;;;;44.77;30.50;;;;;;;;;;4963682;28;20647;-76
2022/11/24 13:01:15;;;;;;;49.30;32.27;;;;;;;;;;4941718;28;21162;-76
2022/11/24 13:03:44;;;;;;;55.77;37.20;;;;;;;;;;4961454;28;20683;-76
2022/11/24 13:06:42;;;;;;;59.07;38.17;;;;;;;;;;4963659;28;20181;-75
2022/11/24 13:09:09;;;;;;;53.50;35.03;;;;;;;;;;4886180;29;20223;-76
2022/11/24 13:11:43;;;;;;;42.93;28.70;;;;;;;;;;4885596;29;20202;-76
2022/11/24 13:14:22;;;;;;;45.87;30.23;;;;;;;;;;4875279;29;20291;-76
2022/11/24 13:16:56;;;;;;;48.53;30.60;;;;;;;;;;4863472;29;20184;-75
2022/11/24 13:19:26;;;;;;;48.87;30.67;;;;;;;;;;4869993;29;20288;-75
2022/11/24 13:22:02;;;;;;;45.73;29.90;;;;;;;;;;4931279;29;20294;-76
2022/11/24 13:24:30;;;;;;;44.87;30.37;;;;;;;;;;4932439;29;20224;-78
2022/11/24 13:27:14;;;;;;;45.13;30.77;;;;;;;;;;4912609;29;20188;-75
2022/11/24 13:29:44;;;;;;;50.87;31.13;;;;;;;;;;4913784;29;20706;-77
2022/11/24 13:32:10;;;;;;;47.07;30.47;;;;;;;;;;4914571;29;20193;-76
2022/11/24 13:34:39;;;;;;;39.87;27.70;;;;;;;;;;4913689;29;20204;-77
2022/11/24 13:37:27;;;;;;;50.27;31.37;;;;;;;;;;4930833;29;20193;-76
2022/11/24 13:40:03;;;;;;;44.90;30.70;;;;;;;;;;4929426;29;20269;-76
2022/11/24 13:42:31;;;;;;;47.17;31.50;;;;;;;;;;4915522;29;20382;-77
2022/11/24 13:45:05;;;;;;;45.47;29.67;;;;;;;;;;4972066;28;20703;-76
2022/11/24 13:47:45;;;;;;;88.80;51.13;;;;;;;;;;4985661;28;20864;-75
2022/11/24 13:50:23;;;;;;;72.77;44.10;;;;;;;;;;5007024;28;20198;-76
2022/11/24 13:52:51;;;;;;;76.70;47.40;;;;;;;;;;4985648;28;20183;-76
2022/11/24 13:55:20;;;;;;;66.80;41.80;;;;;;;;;;5007520;28;20726;-76
2022/11/24 13:58:01;;;;;;;54.30;36.47;;;;;;;;;;5007890;28;20543;-75
2022/11/24 14:00:32;;;;;;;52.20;31.60;;;;;;;;;;5011108;28;20176;-76
2022/11/24 14:03:05;;;;;;;50.30;32.63;;;;;;;;;;4993761;28;20187;-76
2022/11/24 14:05:38;;;;;;;50.40;32.70;;;;;;;;;;5010760;28;20207;-76
2022/11/24 14:08:05;;;;;;;51.13;30.30;;;;;;;;;;4990314;28;20234;-75
2022/11/24 14:10:35;;;;;;;50.77;31.23;;;;;;;;;;5008609;28;20203;-77
2022/11/24 14:13:23;;;;;;;49.70;32.07;;;;;;;;;;5009881;28;20215;-76
2022/11/24 14:16:18;;;;;;;45.83;30.73;;;;;;;;;;5008833;28;20536;-76
2022/11/24 14:18:48;;;;;;;47.93;30.77;;;;;;;;;;4981599;28;20187;-76
2022/11/24 14:21:17;;;;;;;46.63;29.70;;;;;;;;;;5010424;28;20167;-76
2022/11/24 14:23:45;;;;;;;45.67;29.47;;;;;;;;;;4990021;28;20719;-76
2022/11/24 14:26:19;;;;;;;50.60;29.90;;;;;;;;;;4989594;28;20188;-76
2022/11/24 14:28:45;;;;;;;41.47;27.13;;;;;;;;;;4971997;28;20179;-75